Nur fliegen ist schöner ....

Willkommen beim Flugservice Bautzen GmbH

Wir sind eine nach europäischen Richtlinien zugelassene Flugschule und lizenziertes Luftfahrtunternehmen. Bei uns können sie nicht nur Rundflüge über die Oberlausitz oder Sachsen buchen, sondern in unserer Flugschule selber das Fliegen erlernen. Erfahrene Fluglehrer stehen Ihnen dabei zur Seite.

Wir bieten Ihnen außerdem spezielle Flüge zur Vermessung oder Fotoflüge für Luftbildaufnahmen an. In Zusammenarbeit mit dem Fallschirmsportclub Dresden und dem Cottbuser Fallschirmsportclub setzen wir am Flugplatz Bautzen und Neuhausen Fallschirmspringer ab.
Schauen Sie sich in Ruhe bei uns um und wenn Sie Fragen haben oder weitere Informationen benötigen, scheuen Sie sich nicht Kontakt mit uns aufzunehmen.

Gutscheine für Rundflüge und Tandemsprünge können Sie ganz leicht auch online in unserem Shop erwerben.

Terminkalender

Letzter Monat November 2021 Nächster Monat
Mo Di Mi Do Fr Sa So
week 44 1 2 3 4 5 6 7
week 45 8 9 10 11 12 13 14
week 46 15 16 17 18 19 20 21
week 47 22 23 24 25 26 27 28
week 48 29 30

Flugwetterinfo

[Quelle: ADDS]
METAR
EDDC 301750Z 29015KT 260V320 9999 FEW012 BKN017 05/03 Q0999 TEMPO 28020G30KT BKN014 =
EDDC 301700Z 3018/0118 28020G30KT 9999 BKN015 TEMPO 3018/3023 4000 -RADZ BKN009 BECMG 3021/3024 27010KT TEMPO 0103/0108 4500 RADZ BKN008 BECMG 0107/0110 21015G25KT TEMPO 0110/0118 22020G35KT
TAF
EDDC 301700Z 3018/0118 28020G30KT 9999 BKN015 TEMPO 3018/3023 4000 -RADZ BKN009 BECMG 3021/3024 27010KT TEMPO 0103/0108 4500 RADZ BKN008 BECMG 0107/0110 21015G25KT TEMPO 0110/0118 22020G35KT =
SR / SS: 06:42 / 14:58 UTC (EDAB Flugplatz Bautzen 2021-11-30)

Öffnungszeiten

des Flugplatzes Bautzen erfahren Sie hier:

flugplatz bautzen logo
Flugservice Bautzen GmbH, Kornmarkt 34, 02625 Bautzen  Telefon: +49 (3591) 211105, Telefax: +49 (3591) 274512, E-Mail:  flugservice(at)fsbautzen.de